createdAt,value
2018-11-11T00:00:01.133Z,51.70
2018-11-11T00:02:28.627Z,54.90
2018-11-11T00:04:56.104Z,51.93
2018-11-11T00:07:23.651Z,50.67
2018-11-11T00:09:51.149Z,51.50
2018-11-11T00:12:18.656Z,51.60
2018-11-11T00:14:46.147Z,50.47
2018-11-11T00:17:13.645Z,49.47
2018-11-11T00:19:41.148Z,47.23
2018-11-11T00:22:08.661Z,47.23
2018-11-11T00:24:36.168Z,47.70
2018-11-11T00:27:03.706Z,45.83
2018-11-11T00:29:31.192Z,45.60
2018-11-11T00:31:58.701Z,47.70
2018-11-11T00:34:26.192Z,46.20
2018-11-11T00:36:53.703Z,44.37
2018-11-11T00:39:21.194Z,46.27
2018-11-11T00:41:48.732Z,43.53
2018-11-11T00:44:16.232Z,45.60
2018-11-11T00:46:43.736Z,43.17
2018-11-11T00:49:11.210Z,44.17
2018-11-11T00:51:38.712Z,43.47
2018-11-11T00:54:06.197Z,43.60
2018-11-11T00:56:33.679Z,43.37
2018-11-11T00:59:01.157Z,40.63
2018-11-11T01:01:28.625Z,38.93
2018-11-11T01:03:56.112Z,41.47
2018-11-11T01:06:23.607Z,40.13
2018-11-11T01:08:51.096Z,40.47
2018-11-11T01:11:18.617Z,39.13
2018-11-11T01:13:46.091Z,40.70
2018-11-11T01:16:13.577Z,41.87
2018-11-11T01:18:41.170Z,40.43
2018-11-11T01:21:08.649Z,40.60
2018-11-11T01:23:36.116Z,41.43
2018-11-11T01:26:03.588Z,41.83
2018-11-11T01:28:31.080Z,42.73
2018-11-11T01:30:58.552Z,42.23
2018-11-11T01:33:26.031Z,44.50
2018-11-11T01:35:53.520Z,43.80
2018-11-11T01:38:21.001Z,45.40
2018-11-11T01:40:48.488Z,45.47
2018-11-11T01:43:15.964Z,47.03
2018-11-11T01:45:43.496Z,48.23
2018-11-11T01:48:10.961Z,49.40
2018-11-11T01:50:38.459Z,50.87
2018-11-11T01:53:05.971Z,49.90
2018-11-11T01:55:33.476Z,52.83
2018-11-11T01:58:00.997Z,52.10
2018-11-11T02:00:28.485Z,48.83
2018-11-11T02:02:55.997Z,45.23
2018-11-11T02:05:23.493Z,42.50
2018-11-11T02:07:50.996Z,43.17
2018-11-11T02:10:18.501Z,38.70
2018-11-11T02:12:46.359Z,38.40
2018-11-11T02:15:14.832Z,40.43
2018-11-11T02:17:42.371Z,39.47
2018-11-11T02:20:12.678Z,40.50
2018-11-11T02:22:40.378Z,42.27
2018-11-11T02:25:08.442Z,43.23
2018-11-11T02:27:35.931Z,43.13
2018-11-11T02:30:04.412Z,43.97
2018-11-11T02:32:31.901Z,44.77
2018-11-11T02:34:59.397Z,46.73
2018-11-11T02:37:26.921Z,48.03
2018-11-11T02:39:54.376Z,48.80
2018-11-11T02:42:21.876Z,48.23
2018-11-11T02:44:49.393Z,47.63
2018-11-11T02:47:16.877Z,45.33
2018-11-11T02:49:44.369Z,45.80
2018-11-11T02:52:11.841Z,45.83
2018-11-11T02:54:39.325Z,47.17
2018-11-11T02:57:06.796Z,48.33
2018-11-11T02:59:34.278Z,45.17
2018-11-11T03:02:01.782Z,44.07
2018-11-11T03:04:29.300Z,43.30
2018-11-11T03:06:56.764Z,46.80
2018-11-11T03:09:24.253Z,46.63
2018-11-11T03:11:51.727Z,45.30
2018-11-11T03:14:19.205Z,44.20
2018-11-11T03:16:46.712Z,47.77
2018-11-11T03:19:14.188Z,48.57
2018-11-11T03:21:41.656Z,51.40
2018-11-11T03:24:09.140Z,54.60
2018-11-11T03:26:36.613Z,54.07
2018-11-11T03:29:04.317Z,55.93
2018-11-11T03:31:31.817Z,55.60
2018-11-11T03:33:59.303Z,53.07
2018-11-11T03:36:26.780Z,54.53
2018-11-11T03:38:54.256Z,53.63
2018-11-11T03:41:21.732Z,53.00
2018-11-11T03:43:49.221Z,52.03
2018-11-11T03:46:16.700Z,53.20
2018-11-11T03:48:44.180Z,52.40
2018-11-11T03:51:11.655Z,50.83
2018-11-11T03:53:39.148Z,51.77
2018-11-11T03:56:06.651Z,51.50
2018-11-11T03:58:34.139Z,51.00
2018-11-11T04:01:01.670Z,50.97
2018-11-11T04:03:29.141Z,51.73
2018-11-11T04:05:56.616Z,51.00
2018-11-11T04:08:24.099Z,52.17
2018-11-11T04:10:51.580Z,51.10
2018-11-11T04:13:19.076Z,50.93
2018-11-11T04:15:46.546Z,51.43
2018-11-11T04:18:14.061Z,47.33
2018-11-11T04:20:41.537Z,44.20
2018-11-11T04:23:09.065Z,42.80
2018-11-11T04:25:36.524Z,45.17
2018-11-11T04:28:04.104Z,46.53
2018-11-11T04:30:31.594Z,45.30
2018-11-11T04:32:59.085Z,44.43
2018-11-11T04:35:26.564Z,43.10
2018-11-11T04:37:54.029Z,45.03
2018-11-11T04:40:21.511Z,43.00
2018-11-11T04:42:48.988Z,42.37
2018-11-11T04:45:16.524Z,40.50
2018-11-11T04:47:44.843Z,40.47
2018-11-11T04:50:13.568Z,40.67
2018-11-11T04:52:41.728Z,38.90
2018-11-11T04:55:09.908Z,39.47
2018-11-11T04:57:45.961Z,38.17
2018-11-11T05:00:14.080Z,37.93
2018-11-11T05:02:41.793Z,38.93
2018-11-11T05:05:10.601Z,37.27
2018-11-11T05:07:38.202Z,37.30
2018-11-11T05:10:06.329Z,37.87
2018-11-11T05:12:34.089Z,36.80
2018-11-11T05:15:01.577Z,37.13
2018-11-11T05:17:29.060Z,35.97
2018-11-11T05:19:56.543Z,36.60
2018-11-11T05:22:24.021Z,36.40
2018-11-11T05:24:51.492Z,36.97
2018-11-11T05:27:18.980Z,35.20
2018-11-11T05:29:46.468Z,37.50
2018-11-11T05:32:13.932Z,36.03
2018-11-11T05:34:41.424Z,36.93
2018-11-11T05:37:08.902Z,36.40
2018-11-11T05:39:36.380Z,36.10
2018-11-11T05:42:03.877Z,36.47
2018-11-11T05:44:31.373Z,35.97
2018-11-11T05:46:58.852Z,34.47
2018-11-11T05:49:26.316Z,35.60
2018-11-11T05:51:53.848Z,34.83
2018-11-11T05:54:21.344Z,33.33
2018-11-11T05:56:48.811Z,32.47
2018-11-11T05:59:16.300Z,33.07
2018-11-11T06:01:43.811Z,29.73
2018-11-11T06:04:11.296Z,34.57
2018-11-11T06:06:38.768Z,34.00
2018-11-11T06:09:08.701Z,34.00
2018-11-11T06:11:36.381Z,34.13
2018-11-11T06:14:04.225Z,35.80
2018-11-11T06:16:31.712Z,34.73
2018-11-11T06:18:59.196Z,34.93
2018-11-11T06:21:26.720Z,35.73
2018-11-11T06:23:54.183Z,34.47
2018-11-11T06:26:21.660Z,32.83
2018-11-11T06:28:49.140Z,32.33
2018-11-11T06:31:16.620Z,32.10
2018-11-11T06:33:44.104Z,32.93
2018-11-11T06:36:11.581Z,31.87
2018-11-11T06:38:39.052Z,31.13
2018-11-11T06:41:06.551Z,30.70
2018-11-11T06:43:34.030Z,32.27
2018-11-11T06:46:01.541Z,32.23
2018-11-11T06:48:29.036Z,32.63
2018-11-11T06:50:56.532Z,30.07
2018-11-11T06:53:24.027Z,30.93
2018-11-11T06:55:51.544Z,31.13
2018-11-11T06:58:19.041Z,32.20
2018-11-11T07:00:46.549Z,32.57
2018-11-11T07:03:31.545Z,31.10
2018-11-11T07:05:59.068Z,31.93
2018-11-11T07:08:26.552Z,29.90
2018-11-11T07:10:54.057Z,33.10
2018-11-11T07:13:21.553Z,32.50
2018-11-11T07:15:49.048Z,33.17
2018-11-11T07:18:16.540Z,32.50
2018-11-11T07:20:44.033Z,31.53
2018-11-11T07:23:11.527Z,32.73
2018-11-11T07:25:39.024Z,31.77
2018-11-11T07:28:06.524Z,32.47
2018-11-11T07:30:34.020Z,32.00
2018-11-11T07:33:01.517Z,33.47
2018-11-11T07:35:29.020Z,31.13
2018-11-11T07:37:56.514Z,30.80
2018-11-11T07:40:24.008Z,30.57
2018-11-11T07:42:51.492Z,33.30
2018-11-11T07:45:18.989Z,32.27
2018-11-11T07:47:46.538Z,32.77
2018-11-11T07:50:13.952Z,32.83
2018-11-11T07:52:41.412Z,34.70
2018-11-11T07:55:10.197Z,34.60
2018-11-11T07:57:37.640Z,35.10
2018-11-11T08:00:08.832Z,35.43
2018-11-11T08:02:36.311Z,34.73
2018-11-11T08:05:04.324Z,35.07
2018-11-11T08:07:31.795Z,35.93
2018-11-11T08:09:59.432Z,36.47
2018-11-11T08:12:26.908Z,35.00
2018-11-11T08:14:54.386Z,34.80
2018-11-11T08:17:21.852Z,35.03
2018-11-11T08:19:49.315Z,35.03
2018-11-11T08:22:16.796Z,36.00
2018-11-11T08:24:44.260Z,34.23
2018-11-11T08:27:11.737Z,34.87
2018-11-11T08:29:39.221Z,33.73
2018-11-11T08:32:06.732Z,31.60
2018-11-11T08:34:34.185Z,33.70
2018-11-11T08:37:01.673Z,32.33
2018-11-11T08:39:29.144Z,31.73
2018-11-11T08:41:56.615Z,30.73
2018-11-11T08:44:24.085Z,30.87
2018-11-11T08:46:51.589Z,28.13
2018-11-11T08:49:19.112Z,28.43
2018-11-11T08:51:54.113Z,26.47
2018-11-11T08:54:49.885Z,27.50
2018-11-11T08:57:37.010Z,26.80
2018-11-11T09:00:08.145Z,25.13
2018-11-11T09:02:35.653Z,26.80
2018-11-11T09:05:03.228Z,25.00
2018-11-11T09:07:30.666Z,25.63
2018-11-11T09:09:58.156Z,25.63
2018-11-11T09:12:25.651Z,25.40
2018-11-11T09:14:53.140Z,23.90
2018-11-11T09:17:20.680Z,25.17
2018-11-11T09:19:48.139Z,25.13
2018-11-11T09:22:15.652Z,23.80
2018-11-11T09:24:43.945Z,23.07
2018-11-11T09:27:11.440Z,22.80
2018-11-11T09:29:39.070Z,22.60
2018-11-11T09:32:06.468Z,23.50
2018-11-11T09:34:33.968Z,23.57
2018-11-11T09:37:01.476Z,22.67
2018-11-11T09:39:29.033Z,23.37
2018-11-11T09:41:56.520Z,23.10
2018-11-11T09:44:28.045Z,22.77
2018-11-11T09:46:55.549Z,22.40
2018-11-11T09:49:24.108Z,22.57
2018-11-11T09:52:03.559Z,23.00
2018-11-11T09:54:51.733Z,22.10
2018-11-11T09:57:20.276Z,22.37
2018-11-11T09:59:55.257Z,21.13
2018-11-11T10:02:53.210Z,22.37
2018-11-11T10:05:26.468Z,21.33
2018-11-11T10:07:58.951Z,21.90
2018-11-11T10:12:36.269Z,21.17
2018-11-11T10:17:14.013Z,20.23
2018-11-11T10:19:49.911Z,20.70
2018-11-11T10:22:23.927Z,21.43
2018-11-11T10:24:56.600Z,20.63
2018-11-11T10:27:28.877Z,21.93
2018-11-11T10:30:10.936Z,20.80
2018-11-11T10:34:00.854Z,20.50
2018-11-11T10:37:17.175Z,20.93
2018-11-11T10:39:57.526Z,21.27
2018-11-11T10:43:32.020Z,20.80
2018-11-11T10:46:35.937Z,21.07
2018-11-11T10:49:05.994Z,21.33
2018-11-11T10:51:33.665Z,21.80
2018-11-11T10:54:01.292Z,20.87
2018-11-11T10:56:28.801Z,20.30
2018-11-11T10:58:56.265Z,20.83
2018-11-11T11:01:30.124Z,19.83
2018-11-11T11:03:57.585Z,21.10
2018-11-11T11:06:31.000Z,22.73
2018-11-11T11:09:04.335Z,21.53
2018-11-11T11:11:31.812Z,22.80
2018-11-11T11:13:59.384Z,22.70
2018-11-11T11:16:26.760Z,22.80
2018-11-11T11:18:54.236Z,23.07
2018-11-11T11:21:21.712Z,21.33
2018-11-11T11:23:49.183Z,22.20
2018-11-11T11:26:16.652Z,21.13
2018-11-11T11:28:44.124Z,21.53
2018-11-11T11:31:11.613Z,19.70
2018-11-11T11:33:39.156Z,20.60
2018-11-11T11:36:06.631Z,20.70
2018-11-11T11:38:34.108Z,20.53
2018-11-11T11:41:01.603Z,20.67
2018-11-11T11:43:29.188Z,20.73
2018-11-11T11:45:56.672Z,20.57
2018-11-11T11:48:24.160Z,19.80
2018-11-11T11:50:51.625Z,18.55
2018-11-11T11:53:19.099Z,18.98
2018-11-11T11:55:46.581Z,19.50
2018-11-11T11:58:25.745Z,19.30
2018-11-11T12:00:53.230Z,18.75
2018-11-11T12:03:20.713Z,19.05
2018-11-11T12:05:48.180Z,18.10
2018-11-11T12:08:15.669Z,18.23
2018-11-11T12:10:43.210Z,17.67
2018-11-11T12:13:11.580Z,18.20
2018-11-11T12:15:39.952Z,18.80
2018-11-11T12:18:07.450Z,17.35
2018-11-11T12:20:35.481Z,17.42
2018-11-11T12:23:02.958Z,16.37
2018-11-11T12:25:30.423Z,15.85
2018-11-11T12:27:57.903Z,16.77
2018-11-11T12:30:25.648Z,16.65
2018-11-11T12:32:53.164Z,16.42
2018-11-11T12:35:20.660Z,15.72
2018-11-11T12:37:48.196Z,16.32
2018-11-11T12:40:15.806Z,16.00
2018-11-11T12:42:43.474Z,15.60
2018-11-11T12:45:11.639Z,15.32
2018-11-11T12:47:39.163Z,15.93
2018-11-11T12:50:08.412Z,15.72
2018-11-11T12:52:36.264Z,14.60
2018-11-11T12:55:03.836Z,15.08
2018-11-11T12:57:31.345Z,15.40
2018-11-11T12:59:58.852Z,16.20
2018-11-11T13:02:26.385Z,14.68
2018-11-11T13:04:54.466Z,14.45
2018-11-11T13:07:21.885Z,14.73
2018-11-11T13:09:49.405Z,14.38
2018-11-11T13:12:16.942Z,15.00
2018-11-11T13:14:44.502Z,15.38
2018-11-11T13:17:12.024Z,15.28
2018-11-11T13:19:39.583Z,15.53
2018-11-11T13:22:07.063Z,14.15
2018-11-11T13:24:34.583Z,14.30
2018-11-11T13:27:02.094Z,13.85
2018-11-11T13:29:29.596Z,14.55
2018-11-11T13:31:57.127Z,13.88
2018-11-11T13:34:24.596Z,13.45
2018-11-11T13:36:52.096Z,14.23
2018-11-11T13:39:19.616Z,12.78
2018-11-11T13:41:47.125Z,13.53
2018-11-11T13:44:14.633Z,14.58
2018-11-11T13:46:42.244Z,14.25
2018-11-11T13:49:09.627Z,15.45
2018-11-11T13:51:37.422Z,16.07
2018-11-11T13:54:05.588Z,16.60
2018-11-11T13:56:33.062Z,16.70
2018-11-11T13:59:00.574Z,16.42
2018-11-11T14:01:28.096Z,16.25
2018-11-11T14:03:55.547Z,16.30
2018-11-11T14:06:23.025Z,16.77
2018-11-11T14:08:50.524Z,15.20
2018-11-11T14:11:18.028Z,15.25
2018-11-11T14:13:45.508Z,15.30
2018-11-11T14:16:12.992Z,14.55
2018-11-11T14:18:40.613Z,13.93
2018-11-11T14:21:07.976Z,13.98
2018-11-11T14:23:35.493Z,15.03
2018-11-11T14:26:02.997Z,13.88
2018-11-11T14:28:30.470Z,13.83
2018-11-11T14:30:57.947Z,15.53
2018-11-11T14:33:25.443Z,13.78
2018-11-11T14:35:52.989Z,14.45
2018-11-11T14:38:20.442Z,14.50
2018-11-11T14:40:47.936Z,14.50
2018-11-11T14:43:15.445Z,14.83
2018-11-11T14:45:43.057Z,14.13
2018-11-11T14:48:10.689Z,15.25
2018-11-11T14:50:38.192Z,14.00
2018-11-11T14:53:05.709Z,14.70
2018-11-11T14:55:33.215Z,14.80
2018-11-11T14:58:11.350Z,13.85
2018-11-11T15:00:38.831Z,13.98
2018-11-11T15:03:10.692Z,13.85
2018-11-11T15:05:42.144Z,13.70
2018-11-11T15:08:09.699Z,13.50
2018-11-11T15:10:50.549Z,15.20
2018-11-11T15:13:18.181Z,15.20
2018-11-11T15:15:45.562Z,16.20
2018-11-11T15:18:13.044Z,16.10
2018-11-11T15:20:40.715Z,16.23
2018-11-11T15:23:08.551Z,16.03
2018-11-11T15:25:36.045Z,15.90
2018-11-11T15:28:04.398Z,15.57
2018-11-11T15:30:41.819Z,14.53
2018-11-11T15:33:09.156Z,13.23
2018-11-11T15:35:36.694Z,14.87
2018-11-11T15:38:05.033Z,15.20
2018-11-11T15:40:33.753Z,13.53
2018-11-11T15:43:01.716Z,13.30
2018-11-11T15:45:36.329Z,12.77
2018-11-11T15:48:04.303Z,13.00
2018-11-11T15:50:32.791Z,14.23
2018-11-11T15:53:01.689Z,13.53
2018-11-11T15:55:30.576Z,14.17
2018-11-11T15:57:58.103Z,14.00
2018-11-11T16:00:27.748Z,13.70
2018-11-11T16:02:55.248Z,14.00
2018-11-11T16:05:22.784Z,12.47
2018-11-11T16:07:51.056Z,11.70
2018-11-11T16:10:22.696Z,11.90
2018-11-11T16:12:50.438Z,12.70
2018-11-11T16:15:20.908Z,11.57
2018-11-11T16:17:50.696Z,12.40
2018-11-11T16:20:19.586Z,12.30
2018-11-11T16:22:48.164Z,11.73
2018-11-11T16:25:15.696Z,12.60
2018-11-11T16:27:43.904Z,13.03
2018-11-11T16:30:15.741Z,13.00
2018-11-11T16:32:43.731Z,13.10
2018-11-11T16:35:16.113Z,13.27
2018-11-11T16:37:43.620Z,13.30
2018-11-11T16:40:13.663Z,13.33
2018-11-11T16:42:41.687Z,12.80
2018-11-11T16:45:12.185Z,12.47
2018-11-11T16:47:39.693Z,13.10
2018-11-11T16:50:10.483Z,11.83
2018-11-11T16:52:38.748Z,11.97
2018-11-11T16:55:07.414Z,12.03
2018-11-11T16:57:34.972Z,13.10
2018-11-11T17:00:02.877Z,13.33
2018-11-11T17:02:30.344Z,13.60
2018-11-11T17:04:57.825Z,13.73
2018-11-11T17:07:25.304Z,13.13
2018-11-11T17:09:59.825Z,13.80
2018-11-11T17:12:27.300Z,14.03
2018-11-11T17:14:54.807Z,15.10
2018-11-11T17:17:22.276Z,15.53
2018-11-11T17:19:49.764Z,17.23
2018-11-11T17:22:17.362Z,18.70
2018-11-11T17:24:44.745Z,19.90
2018-11-11T17:27:12.227Z,19.23
2018-11-11T17:29:39.715Z,22.60
2018-11-11T17:32:13.943Z,21.50
2018-11-11T17:34:41.314Z,22.20
2018-11-11T17:37:08.785Z,24.67
2018-11-11T17:39:36.272Z,23.47
2018-11-11T17:42:03.845Z,24.37
2018-11-11T17:44:31.320Z,25.33
2018-11-11T17:46:58.840Z,26.27
2018-11-11T17:49:26.337Z,26.17
2018-11-11T17:51:53.828Z,24.70
2018-11-11T17:54:21.327Z,25.60
2018-11-11T17:56:48.829Z,25.73
2018-11-11T17:59:16.331Z,26.13
2018-11-11T18:01:43.869Z,26.00
2018-11-11T18:04:11.369Z,25.60
2018-11-11T18:06:38.921Z,26.30
2018-11-11T18:09:08.072Z,27.33
2018-11-11T18:11:35.566Z,24.60
2018-11-11T18:14:03.139Z,25.87
2018-11-11T18:16:30.563Z,25.23
2018-11-11T18:18:58.061Z,25.10
2018-11-11T18:21:25.549Z,27.20
2018-11-11T18:23:53.042Z,25.50
2018-11-11T18:26:20.604Z,25.53
2018-11-11T18:28:48.040Z,25.53
2018-11-11T18:31:15.556Z,26.77
2018-11-11T18:33:43.044Z,25.93
2018-11-11T18:36:27.493Z,25.17
2018-11-11T18:38:55.110Z,25.97
2018-11-11T18:41:42.626Z,25.10
2018-11-11T18:44:10.141Z,25.00
2018-11-11T18:46:44.260Z,25.30
2018-11-11T18:49:11.734Z,25.23
2018-11-11T18:51:39.220Z,25.13
2018-11-11T18:54:06.705Z,24.83
2018-11-11T18:56:55.508Z,25.33
2018-11-11T18:59:22.948Z,24.03
2018-11-11T19:01:50.434Z,25.00
2018-11-11T19:04:17.901Z,25.03
2018-11-11T19:06:45.387Z,25.43
2018-11-11T19:09:13.727Z,25.67
2018-11-11T19:11:41.184Z,25.90
2018-11-11T19:14:08.756Z,26.03
2018-11-11T19:16:36.446Z,25.27
2018-11-11T19:19:04.749Z,26.40
2018-11-11T19:21:32.228Z,26.57
2018-11-11T19:23:59.737Z,26.00
2018-11-11T19:26:37.372Z,25.87
2018-11-11T19:29:04.967Z,27.80
2018-11-11T19:31:32.453Z,27.07
2018-11-11T19:33:59.928Z,25.87
2018-11-11T19:36:27.431Z,26.70
2018-11-11T19:38:54.899Z,27.23
2018-11-11T19:41:22.396Z,27.53
2018-11-11T19:43:49.852Z,27.53
2018-11-11T19:46:17.424Z,27.73
2018-11-11T19:49:05.144Z,28.97
2018-11-11T19:51:32.674Z,27.17
2018-11-11T19:54:00.394Z,26.77
2018-11-11T19:56:27.937Z,28.10
2018-11-11T19:58:55.516Z,27.20
2018-11-11T20:01:23.041Z,27.03
2018-11-11T20:03:51.172Z,26.67
2018-11-11T20:06:18.683Z,26.30
2018-11-11T20:08:46.184Z,25.57
2018-11-11T20:11:13.718Z,26.80
2018-11-11T20:13:41.260Z,27.27
2018-11-11T20:16:08.764Z,27.83
2018-11-11T20:18:36.256Z,28.47
2018-11-11T20:21:03.835Z,28.03
2018-11-11T20:23:31.325Z,30.17
2018-11-11T20:25:58.819Z,28.47
2018-11-11T20:28:26.316Z,27.40
2018-11-11T20:30:53.825Z,27.70
2018-11-11T20:33:21.312Z,27.60
2018-11-11T20:35:48.814Z,27.47
2018-11-11T20:38:16.323Z,24.77
2018-11-11T20:40:43.813Z,27.27
2018-11-11T20:43:11.325Z,26.50
2018-11-11T20:45:38.797Z,26.47
2018-11-11T20:48:06.287Z,24.87
2018-11-11T20:50:34.792Z,25.20
2018-11-11T20:53:03.676Z,25.30
2018-11-11T20:55:31.231Z,26.47
2018-11-11T20:57:58.924Z,27.83
2018-11-11T21:00:31.671Z,27.87
2018-11-11T21:02:59.164Z,28.67
2018-11-11T21:05:27.271Z,28.20
2018-11-11T21:07:54.878Z,28.37
2018-11-11T21:10:23.598Z,28.27
2018-11-11T21:12:51.223Z,29.17
2018-11-11T21:15:19.995Z,29.73
2018-11-11T21:17:47.783Z,31.13
2018-11-11T21:20:16.669Z,30.40
2018-11-11T21:22:44.168Z,29.00
2018-11-11T21:25:11.987Z,30.27
2018-11-11T21:27:40.365Z,30.17
2018-11-11T21:30:11.075Z,29.70
2018-11-11T21:32:38.682Z,31.93
2018-11-11T21:35:06.459Z,28.80
2018-11-11T21:37:33.940Z,31.17
2018-11-11T21:40:01.461Z,32.27
2018-11-11T21:42:29.110Z,30.00
2018-11-11T21:44:56.589Z,29.37
2018-11-11T21:47:24.096Z,29.27
2018-11-11T21:49:51.609Z,27.90
2018-11-11T21:52:19.105Z,27.03
2018-11-11T21:54:46.810Z,25.67
2018-11-11T21:57:14.122Z,27.63
2018-11-11T21:59:41.600Z,27.13
2018-11-11T22:02:09.171Z,25.30
2018-11-11T22:04:36.633Z,24.83
2018-11-11T22:07:04.428Z,24.97
2018-11-11T22:09:31.960Z,24.97
2018-11-11T22:11:59.441Z,25.40
2018-11-11T22:14:26.932Z,24.07
2018-11-11T22:16:54.459Z,24.93
2018-11-11T22:19:21.928Z,24.90
2018-11-11T22:21:49.451Z,25.03
2018-11-11T22:24:16.948Z,24.10
2018-11-11T22:26:44.476Z,26.20
2018-11-11T22:29:11.969Z,25.43
2018-11-11T22:31:39.448Z,23.43
2018-11-11T22:34:13.144Z,24.00
2018-11-11T22:36:40.648Z,23.97
2018-11-11T22:39:09.331Z,23.17
2018-11-11T22:41:37.194Z,24.40
2018-11-11T22:44:05.029Z,25.70
2018-11-11T22:46:32.525Z,25.13
2018-11-11T22:49:00.040Z,26.53
2018-11-11T22:51:27.512Z,25.17
2018-11-11T22:54:14.636Z,25.93
2018-11-11T22:56:42.114Z,26.37
2018-11-11T22:59:09.597Z,25.67
2018-11-11T23:01:37.064Z,25.07
2018-11-11T23:04:07.892Z,24.70
2018-11-11T23:07:01.089Z,24.50
2018-11-11T23:09:28.575Z,24.63
2018-11-11T23:11:56.060Z,23.63
2018-11-11T23:14:23.553Z,24.63
2018-11-11T23:16:51.032Z,24.30
2018-11-11T23:19:18.524Z,25.63
2018-11-11T23:21:46.004Z,25.53
2018-11-11T23:24:13.468Z,26.27
2018-11-11T23:26:40.959Z,26.77
2018-11-11T23:29:08.449Z,25.53
2018-11-11T23:31:35.908Z,26.07
2018-11-11T23:34:03.392Z,26.47
2018-11-11T23:36:30.865Z,25.97
2018-11-11T23:38:58.360Z,26.53
2018-11-11T23:41:25.836Z,26.40
2018-11-11T23:43:53.322Z,25.53
2018-11-11T23:46:20.799Z,27.03
2018-11-11T23:48:48.287Z,26.93
2018-11-11T23:51:15.812Z,27.27
2018-11-11T23:53:43.288Z,29.27
2018-11-11T23:56:10.780Z,28.23
2018-11-11T23:58:38.272Z,28.03
